Time;durP1;ratioP1;P1;durP2;ratioP2;P2;SDS_P1;SDS_P2;PMS_P1;PMS_P2;Temp;Humidity;BMP_temperature;BMP_pressure;BME280_temperature;BME280_humidity;BME280_pressure;Samples;Min_cycle;Max_cycle;Signal;HPM_P1;HPM_P2
2022/04/06 00:00:12;;;;;;;26.08;8.52;;;;;;;9.11;100.00;100386.22;5078596;28;20032;-65
2022/04/06 00:02:39;;;;;;;30.02;8.70;;;;;;;9.13;100.00;100387.03;5078795;28;20092;-64
2022/04/06 00:05:08;;;;;;;22.20;8.25;;;;;;;9.06;100.00;100388.88;5078632;28;20388;-64
2022/04/06 00:07:33;;;;;;;26.20;8.57;;;;;;;9.14;100.00;100383.56;5078909;28;20173;-66
2022/04/06 00:09:58;;;;;;;23.25;8.15;;;;;;;8.96;100.00;100351.63;5078933;28;20447;-65
2022/04/06 00:12:24;;;;;;;25.17;8.55;;;;;;;9.13;100.00;100374.84;5078849;28;20028;-64
2022/04/06 00:14:49;;;;;;;21.23;8.18;;;;;;;9.22;100.00;100377.31;5078557;28;20040;-64
2022/04/06 00:17:14;;;;;;;26.98;8.32;;;;;;;9.17;100.00;100375.69;5078454;28;20455;-65
2022/04/06 00:19:40;;;;;;;27.10;8.85;;;;;;;9.08;100.00;100368.84;5078476;28;20028;-64
2022/04/06 00:22:05;;;;;;;23.77;8.30;;;;;;;9.05;100.00;100369.75;5078467;28;20108;-65
2022/04/06 00:24:31;;;;;;;24.85;7.95;;;;;;;9.07;100.00;100380.16;5078469;28;20344;-64
2022/04/06 00:26:57;;;;;;;22.10;7.85;;;;;;;8.95;100.00;100368.16;5078216;28;20039;-64
2022/04/06 00:29:22;;;;;;;28.60;8.07;;;;;;;9.15;100.00;100367.00;5077936;28;20129;-65
2022/04/06 00:31:48;;;;;;;23.13;7.63;;;;;;;9.07;100.00;100372.31;5078021;28;20117;-66
2022/04/06 00:34:13;;;;;;;25.25;7.90;;;;;;;8.96;100.00;100358.59;5078113;28;20062;-65
2022/04/06 00:36:38;;;;;;;24.30;7.50;;;;;;;9.10;100.00;100380.13;5077621;28;20170;-64
2022/04/06 00:39:04;;;;;;;20.45;8.30;;;;;;;9.01;100.00;100361.97;5078043;28;20094;-64
2022/04/06 00:41:29;;;;;;;20.75;7.60;;;;;;;8.98;100.00;100362.91;5077962;28;20109;-63
2022/04/06 00:44:14;;;;;;;28.60;8.40;;;;;;;9.11;100.00;100373.16;5078041;28;20417;-63
2022/04/06 00:46:43;;;;;;;23.00;8.20;;;;;;;8.96;100.00;100366.41;5077832;28;20031;-65
2022/04/06 00:49:11;;;;;;;26.90;7.72;;;;;;;9.01;100.00;100352.41;5077910;28;20035;-65
2022/04/06 00:51:39;;;;;;;21.70;6.93;;;;;;;9.05;100.00;100366.25;5077797;28;20071;-64
2022/04/06 00:54:05;;;;;;;22.85;6.80;;;;;;;9.08;100.00;100361.88;5078053;28;20036;-64
2022/04/06 00:56:30;;;;;;;26.05;8.15;;;;;;;9.00;100.00;100352.44;5077801;28;20150;-66
2022/04/06 00:58:56;;;;;;;21.42;7.18;;;;;;;9.00;100.00;100353.28;5077646;28;20033;-65
2022/04/06 01:01:21;;;;;;;23.92;7.20;;;;;;;8.92;100.00;100354.28;5077752;28;20036;-64
2022/04/06 01:03:47;;;;;;;25.38;7.65;;;;;;;8.98;100.00;100357.69;5077483;28;20398;-65
2022/04/06 01:06:13;;;;;;;22.85;7.40;;;;;;;8.99;100.00;100345.50;5077611;28;20405;-63
2022/04/06 01:08:38;;;;;;;21.13;6.82;;;;;;;8.94;100.00;100349.91;5077604;28;20343;-65
2022/04/06 01:11:04;;;;;;;19.83;6.50;;;;;;;9.02;100.00;100348.03;5076195;28;20355;-63
2022/04/06 01:13:30;;;;;;;27.83;7.68;;;;;;;8.95;100.00;100338.59;5077433;28;20323;-64
2022/04/06 01:15:55;;;;;;;18.15;6.57;;;;;;;8.94;100.00;100342.94;5077253;28;20044;-64
2022/04/06 01:18:20;;;;;;;26.58;7.13;;;;;;;8.89;100.00;100336.06;5077280;28;20036;-65
2022/04/06 01:20:45;;;;;;;20.75;6.13;;;;;;;8.88;100.00;100340.41;5077421;28;20051;-64
2022/04/06 01:23:11;;;;;;;22.92;6.47;;;;;;;8.92;100.00;100325.59;5077199;28;20456;-65
2022/04/06 01:25:38;;;;;;;28.25;6.97;;;;;;;8.92;100.00;100342.09;5077612;28;20032;-64
2022/04/06 01:28:04;;;;;;;27.42;7.60;;;;;;;8.95;100.00;100339.47;5077215;28;20042;-66
2022/04/06 01:30:30;;;;;;;21.20;6.70;;;;;;;8.80;100.00;100326.63;5076932;28;20436;-64
2022/04/06 01:32:57;;;;;;;24.30;6.53;;;;;;;8.96;100.00;100333.34;5077345;28;20119;-65
2022/04/06 01:35:23;;;;;;;23.67;6.43;;;;;;;8.87;100.00;100328.25;5077157;28;20028;-64
2022/04/06 01:37:48;;;;;;;18.35;6.22;;;;;;;8.85;100.00;100329.16;5077313;28;20372;-65
2022/04/06 01:40:13;;;;;;;19.92;6.03;;;;;;;8.83;100.00;100329.19;5077184;28;20043;-63
2022/04/06 01:42:39;;;;;;;21.55;5.50;;;;;;;8.88;100.00;100331.72;5076916;28;20423;-64
2022/04/06 01:45:04;;;;;;;21.77;5.70;;;;;;;8.84;100.00;100330.91;5077131;28;20051;-64
2022/04/06 01:47:30;;;;;;;18.75;5.88;;;;;;;8.83;100.00;100328.34;5076845;28;20458;-63
2022/04/06 01:52:39;;;;;;;22.27;5.85;;;;;;;8.79;100.00;100319.69;5076932;28;20158;-65
2022/04/06 01:55:10;;;;;;;16.02;5.80;;;;;;;8.79;100.00;100321.44;5076722;28;20029;-66
2022/04/06 01:57:36;;;;;;;21.13;5.82;;;;;;;8.79;100.00;100329.28;5076721;28;20037;-65
2022/04/06 02:00:06;;;;;;;20.48;5.22;;;;;;;8.82;100.00;100329.22;5076487;28;20029;-65
2022/04/06 02:02:31;;;;;;;21.25;5.47;;;;;;;8.75;100.00;100314.53;5076150;28;20036;-64
2022/04/06 02:04:59;;;;;;;18.00;5.07;;;;;;;8.83;100.00;100320.53;5076769;28;20036;-65
2022/04/06 02:07:25;;;;;;;21.27;5.13;;;;;;;8.73;100.00;100318.03;5076732;28;20032;-64
2022/04/06 02:09:50;;;;;;;20.42;5.30;;;;;;;8.88;100.00;100318.69;5076408;28;20041;-65
2022/04/06 02:12:16;;;;;;;17.92;5.07;;;;;;;8.78;100.00;100315.38;5076194;28;20036;-64
2022/04/06 02:14:42;;;;;;;18.58;5.15;;;;;;;8.77;100.00;100316.25;5075998;28;20044;-65
2022/04/06 02:17:08;;;;;;;19.95;5.32;;;;;;;8.73;100.00;100304.97;5076241;28;20035;-66
2022/04/06 02:19:37;;;;;;;14.55;4.82;;;;;;;8.77;100.00;100312.78;5076401;28;20033;-65
2022/04/06 02:22:04;;;;;;;20.73;4.88;;;;;;;8.64;100.00;100292.09;5075946;28;20428;-64
2022/04/06 02:24:30;;;;;;;17.23;5.22;;;;;;;8.69;100.00;100295.47;5076326;28;20107;-65
2022/04/06 02:26:55;;;;;;;13.13;4.90;;;;;;;8.69;100.00;100305.91;5075951;28;20435;-65
2022/04/06 02:29:20;;;;;;;18.17;5.00;;;;;;;8.70;100.00;100309.38;5075574;28;20132;-65
2022/04/06 02:31:46;;;;;;;18.23;4.90;;;;;;;8.69;100.00;100302.44;5075876;28;20024;-64
2022/04/06 02:34:11;;;;;;;17.77;4.85;;;;;;;8.66;100.00;100308.56;5075868;28;20036;-65
2022/04/06 02:36:36;;;;;;;19.48;5.82;;;;;;;8.67;99.49;100299.84;5075845;28;20424;-64
2022/04/06 02:39:02;;;;;;;16.10;4.68;;;;;;;8.69;99.38;100302.44;5075548;28;20032;-64
2022/04/06 02:41:28;;;;;;;17.48;4.88;;;;;;;8.72;98.52;100300.66;5075629;28;20476;-64
2022/04/06 02:43:53;;;;;;;14.02;4.30;;;;;;;8.61;98.93;100289.53;5075952;28;20037;-64
2022/04/06 02:46:19;;;;;;;13.15;3.85;;;;;;;8.63;98.46;100286.91;5075549;28;20050;-65
2022/04/06 02:48:45;;;;;;;16.38;4.35;;;;;;;8.62;98.63;100291.25;5075694;28;20074;-65
2022/04/06 02:51:10;;;;;;;13.93;4.43;;;;;;;8.46;99.26;100275.84;5075480;28;20025;-64
2022/04/06 02:53:35;;;;;;;17.48;4.00;;;;;;;8.49;99.44;100273.16;5075648;28;20089;-63
2022/04/06 02:56:01;;;;;;;17.73;4.47;;;;;;;8.50;99.95;100291.41;5075023;28;20105;-64
2022/04/06 02:58:26;;;;;;;15.10;4.60;;;;;;;8.48;99.74;100284.50;5075399;28;20060;-65
2022/04/06 03:00:51;;;;;;;16.67;4.63;;;;;;;8.45;98.07;100271.50;5075428;28;20033;-65
2022/04/06 03:03:16;;;;;;;16.33;4.47;;;;;;;8.50;98.78;100285.31;5075382;28;20028;-66
2022/04/06 03:05:42;;;;;;;13.43;4.00;;;;;;;8.42;98.78;100277.63;5075406;28;20040;-63
2022/04/06 03:08:07;;;;;;;15.85;4.43;;;;;;;8.49;98.28;100275.78;5075209;28;20028;-65
2022/04/06 03:10:33;;;;;;;15.73;4.10;;;;;;;8.43;98.12;100268.06;5075040;28;20021;-63
2022/04/06 03:12:59;;;;;;;11.73;4.22;;;;;;;8.43;98.52;100268.06;5075288;28;20028;-64
2022/04/06 03:15:24;;;;;;;15.60;4.18;;;;;;;8.43;98.71;100271.53;5075101;28;20039;-64
2022/04/06 03:17:49;;;;;;;12.48;3.55;;;;;;;8.38;97.84;100265.50;5075031;28;20069;-66
2022/04/06 03:20:15;;;;;;;16.60;4.25;;;;;;;8.41;98.28;100259.38;5075274;28;20032;-63
2022/04/06 03:22:43;;;;;;;18.02;4.35;;;;;;;8.46;97.89;100275.84;5075131;28;20046;-65
2022/04/06 03:25:09;;;;;;;13.35;3.30;;;;;;;8.38;97.47;100257.69;5075403;28;20129;-67
2022/04/06 03:27:36;;;;;;;14.85;3.70;;;;;;;8.42;97.01;100251.53;5075188;28;20072;-66
2022/04/06 03:30:06;;;;;;;12.13;3.60;;;;;;;8.44;97.02;100259.34;5075102;28;20049;-65
2022/04/06 03:32:31;;;;;;;8.88;2.90;;;;;;;8.45;95.90;100259.34;5074512;28;20451;-64
2022/04/06 03:34:57;;;;;;;18.83;3.75;;;;;;;8.54;94.14;100251.38;5074729;28;20085;-64
2022/04/06 03:37:22;;;;;;;16.00;3.65;;;;;;;8.51;94.51;100246.19;5074767;28;20115;-65
2022/04/06 03:39:47;;;;;;;14.88;3.53;;;;;;;8.43;95.07;100241.97;5074846;28;20040;-63
2022/04/06 03:42:13;;;;;;;10.32;3.33;;;;;;;8.49;94.04;100234.06;5074783;28;20128;-64
2022/04/06 03:44:38;;;;;;;12.20;3.40;;;;;;;8.43;93.97;100228.94;5074597;28;20032;-65
2022/04/06 03:47:03;;;;;;;16.00;3.42;;;;;;;8.45;95.10;100235.88;5074766;28;20060;-64
2022/04/06 03:49:29;;;;;;;16.38;3.47;;;;;;;8.46;93.51;100221.94;5074033;28;20375;-63
2022/04/06 03:51:54;;;;;;;8.35;2.92;;;;;;;8.52;91.78;100227.06;5074755;28;20056;-65
2022/04/06 03:54:19;;;;;;;11.20;3.08;;;;;;;8.59;91.47;100235.66;5075487;28;20424;-64
2022/04/06 03:56:45;;;;;;;12.40;3.75;;;;;;;8.45;92.52;100221.97;5074628;28;20099;-67
2022/04/06 03:59:10;;;;;;;10.25;2.85;;;;;;;8.56;91.02;100226.13;5074640;28;20436;-65
2022/04/06 04:01:35;;;;;;;12.00;2.88;;;;;;;8.54;91.09;100234.84;5074553;28;20028;-64
2022/04/06 04:04:02;;;;;;;19.23;3.45;;;;;;;8.58;90.76;100233.94;5074868;28;20029;-63
2022/04/06 04:06:27;;;;;;;13.82;3.42;;;;;;;8.50;91.10;100226.22;5074851;28;20033;-63
2022/04/06 04:08:53;;;;;;;13.25;2.97;;;;;;;8.53;90.69;100226.16;5074834;28;20182;-65
2022/04/06 04:11:18;;;;;;;10.55;2.97;;;;;;;8.49;92.06;100221.88;5074823;28;20028;-64
2022/04/06 04:13:43;;;;;;;14.93;3.10;;;;;;;8.45;92.17;100220.22;5074280;28;20043;-64
2022/04/06 04:16:08;;;;;;;12.48;2.95;;;;;;;8.49;91.14;100227.09;5074358;28;20040;-64
2022/04/06 04:18:34;;;;;;;13.57;3.03;;;;;;;8.47;92.53;100222.81;5074657;28;20120;-63
2022/04/06 04:23:43;;;;;;;13.98;3.88;;;;;;;8.50;92.47;100223.59;5074418;28;20047;-65
2022/04/06 04:26:09;;;;;;;13.27;3.70;;;;;;;8.46;93.38;100214.13;5074737;28;20384;-65
2022/04/06 04:28:34;;;;;;;14.25;3.70;;;;;;;8.52;93.85;100215.75;5074130;28;20028;-65
2022/04/06 04:31:01;;;;;;;15.65;4.10;;;;;;;8.46;94.19;100214.13;5074405;28;20123;-64
2022/04/06 04:33:26;;;;;;;27.73;5.07;;;;;;;8.55;93.37;100206.16;5074526;28;20044;-65
2022/04/06 04:35:52;;;;;;;16.38;4.30;;;;;;;8.56;93.94;100207.88;5073960;28;20359;-67
2022/04/06 04:38:17;;;;;;;15.80;4.85;;;;;;;8.49;94.77;100205.38;5074247;28;20048;-65
2022/04/06 04:40:43;;;;;;;16.02;4.68;;;;;;;8.56;94.49;100209.63;5073590;28;20079;-57
2022/04/06 04:43:08;;;;;;;16.92;4.90;;;;;;;8.51;95.28;100203.59;5074491;28;20036;-65
2022/04/06 04:45:33;;;;;;;22.40;5.30;;;;;;;8.48;95.24;100208.88;5076986;28;20032;-64
2022/04/06 04:47:59;;;;;;;17.80;6.00;;;;;;;8.51;95.41;100214.91;5078186;28;20040;-64
2022/04/06 04:50:24;;;;;;;19.58;5.68;;;;;;;8.56;95.15;100202.66;5077834;28;20048;-65
2022/04/06 04:52:49;;;;;;;18.75;5.93;;;;;;;8.51;95.51;100193.16;5077661;28;20119;-65
2022/04/06 04:55:15;;;;;;;21.08;6.28;;;;;;;8.55;95.79;100202.69;5077757;28;20043;-63
2022/04/06 04:57:40;;;;;;;23.35;6.10;;;;;;;8.56;95.80;100202.66;5076659;28;20038;-63
2022/04/06 05:00:08;;;;;;;22.58;6.20;;;;;;;8.50;96.34;100197.53;5077828;28;20464;-65
2022/04/06 05:02:33;;;;;;;17.38;5.63;;;;;;;8.53;95.63;100194.00;5077973;28;20444;-66
2022/04/06 05:04:59;;;;;;;19.83;6.13;;;;;;;8.58;95.12;100189.59;5066081;28;20036;-63
2022/04/06 05:07:24;;;;;;;15.57;5.65;;;;;;;8.41;95.83;100165.53;5057580;28;20025;-65
2022/04/06 05:09:50;;;;;;;18.08;6.03;;;;;;;8.59;95.28;100191.31;5057675;28;20025;-63
2022/04/06 05:12:15;;;;;;;20.02;6.05;;;;;;;8.57;93.71;100167.00;5057316;28;20503;-65
2022/04/06 05:14:41;;;;;;;16.45;6.05;;;;;;;8.51;95.38;100182.75;5057599;28;20446;-64
2022/04/06 05:17:07;;;;;;;19.77;6.30;;;;;;;8.54;95.42;100190.53;5057464;28;20439;-64
2022/04/06 05:19:32;;;;;;;16.45;5.30;;;;;;;8.62;95.14;100191.28;5057093;28;20032;-66
2022/04/06 05:21:59;;;;;;;15.98;6.50;;;;;;;8.55;94.63;100187.91;5057266;28;20442;-64
2022/04/06 05:24:25;;;;;;;17.52;4.95;;;;;;;8.55;94.65;100180.06;5057541;28;20037;-66
2022/04/06 05:26:50;;;;;;;14.77;5.20;;;;;;;8.56;94.11;100176.56;5057102;28;20104;-64
2022/04/06 05:29:15;;;;;;;15.25;4.60;;;;;;;8.60;93.91;100178.25;5057084;28;20371;-65
2022/04/06 05:31:41;;;;;;;17.08;5.65;;;;;;;8.55;94.94;100185.28;5057287;28;20037;-66
2022/04/06 05:34:06;;;;;;;17.30;5.10;;;;;;;8.67;93.31;100173.78;5057022;28;20025;-65
2022/04/06 05:36:31;;;;;;;20.73;5.07;;;;;;;8.57;94.44;100183.53;5056987;28;20366;-65
2022/04/06 05:38:58;;;;;;;13.20;3.90;;;;;;;8.68;93.44;100185.94;5056809;28;20056;-64
2022/04/06 05:41:24;;;;;;;15.02;4.95;;;;;;;8.61;93.69;100177.38;5056809;28;20060;-64
2022/04/06 05:43:49;;;;;;;14.73;3.92;;;;;;;8.65;92.98;100176.44;5057093;28;20120;-64
2022/04/06 05:46:14;;;;;;;12.30;4.25;;;;;;;8.65;93.18;100172.97;5057033;28;20032;-66
2022/04/06 05:48:39;;;;;;;13.85;4.43;;;;;;;8.62;93.23;100176.50;5057017;28;20492;-65
2022/04/06 05:51:05;;;;;;;11.65;3.72;;;;;;;8.57;94.19;100167.88;5056769;28;20040;-66
2022/04/06 05:53:30;;;;;;;14.73;4.10;;;;;;;8.66;93.41;100177.28;5056380;28;20083;-63
2022/04/06 05:55:56;;;;;;;13.13;3.80;;;;;;;8.68;90.90;100154.63;5056178;28;20040;-64
2022/04/06 05:58:21;;;;;;;13.27;3.55;;;;;;;8.74;90.90;100175.41;5056017;28;20060;-63
2022/04/06 06:00:46;;;;;;;11.13;3.50;;;;;;;8.72;90.60;100169.38;5056659;28;20025;-65
2022/04/06 06:03:12;;;;;;;10.48;2.90;;;;;;;8.71;91.44;100178.94;5056547;28;20421;-63
2022/04/06 06:05:37;;;;;;;12.38;3.40;;;;;;;8.63;90.19;100166.91;5056230;28;20029;-65
2022/04/06 06:08:03;;;;;;;12.43;3.35;;;;;;;8.72;89.98;100178.06;5056378;28;20375;-67
2022/04/06 06:10:28;;;;;;;11.43;3.17;;;;;;;8.73;89.68;100174.56;5055996;28;20487;-64
2022/04/06 06:12:53;;;;;;;12.38;2.67;;;;;;;8.73;87.66;100187.59;5056369;28;20102;-65
2022/04/06 06:15:19;;;;;;;10.73;2.60;;;;;;;8.85;85.99;100178.69;5056317;28;20102;-65
2022/04/06 06:17:44;;;;;;;5.82;1.77;;;;;;;8.96;84.06;100179.41;5056407;28;20033;-65
2022/04/06 06:20:10;;;;;;;10.70;2.60;;;;;;;8.92;84.45;100182.06;5056402;28;20095;-65
2022/04/06 06:22:35;;;;;;;6.05;1.77;;;;;;;8.92;84.02;100184.69;5055964;28;20501;-64
2022/04/06 06:25:01;;;;;;;9.60;2.35;;;;;;;8.89;83.39;100185.59;5056079;28;20041;-64
2022/04/06 06:27:26;;;;;;;7.38;2.08;;;;;;;8.92;83.62;100192.50;5056168;28;20021;-65
2022/04/06 06:29:52;;;;;;;8.63;2.88;;;;;;;8.90;82.40;100191.66;5055576;28;20442;-66
2022/04/06 06:32:17;;;;;;;13.82;2.13;;;;;;;8.92;83.14;100187.28;5056025;28;20040;-64
2022/04/06 06:34:42;;;;;;;10.50;2.33;;;;;;;8.94;83.25;100180.31;5055777;28;20029;-64
2022/04/06 06:37:09;;;;;;;7.35;1.88;;;;;;;9.01;82.51;100176.69;5055597;28;20446;-64
2022/04/06 06:39:34;;;;;;;8.02;1.85;;;;;;;9.07;79.94;100171.34;5056404;28;20041;-64
2022/04/06 06:41:59;;;;;;;12.45;1.92;;;;;;;8.89;81.27;100162.09;5061657;28;20043;-64
2022/04/06 06:44:25;;;;;;;7.10;1.80;;;;;;;9.01;80.50;100180.16;5057948;28;20029;-66
2022/04/06 06:46:50;;;;;;;9.82;2.08;;;;;;;9.03;80.54;100173.16;5069546;28;20043;-66
2022/04/06 06:49:16;;;;;;;6.53;2.00;;;;;;;9.21;77.70;100164.13;5060788;28;20036;-66
2022/04/06 06:51:41;;;;;;;8.80;1.80;;;;;;;9.07;78.68;100153.94;5061069;28;20429;-66
2022/04/06 06:54:07;;;;;;;5.63;1.70;;;;;;;9.12;80.31;100158.25;5068426;28;20051;-65
2022/04/06 06:56:33;;;;;;;11.68;1.80;;;;;;;9.24;77.42;100169.31;5072503;28;20043;-65
2022/04/06 06:58:58;;;;;;;5.70;1.42;;;;;;;9.17;78.34;100157.28;5073768;28;20045;-64
2022/04/06 07:01:24;;;;;;;6.25;1.55;;;;;;;9.10;77.84;100131.31;5062537;28;20025;-65
2022/04/06 07:03:49;;;;;;;6.15;1.60;;;;;;;9.35;76.77;100159.50;5063011;28;20127;-65
2022/04/06 07:06:15;;;;;;;8.50;1.52;;;;;;;9.33;77.60;100165.66;5065476;28;20083;-65
2022/04/06 07:08:41;;;;;;;5.60;1.55;;;;;;;9.32;77.15;100156.13;5068361;28;20036;-65
2022/04/06 07:11:06;;;;;;;8.70;2.00;;;;;;;9.37;76.28;100155.13;5072540;28;20028;-64
2022/04/06 07:13:32;;;;;;;9.30;2.28;;;;;;;9.35;76.93;100161.28;5068086;28;20082;-65
2022/04/06 07:15:57;;;;;;;9.27;2.08;;;;;;;9.35;78.10;100158.66;5072411;28;20032;-65
2022/04/06 07:18:23;;;;;;;10.80;2.60;;;;;;;9.25;80.14;100162.31;5074958;28;20388;-66
2022/04/06 07:20:49;;;;;;;13.38;2.72;;;;;;;9.27;81.32;100161.41;5074573;28;20040;-66
2022/04/06 07:23:14;;;;;;;10.60;2.53;;;;;;;9.18;82.49;100155.53;5074996;28;20111;-66
2022/04/06 07:25:40;;;;;;;12.73;3.58;;;;;;;9.16;83.77;100147.72;5086281;28;20039;-65
2022/04/06 07:28:06;;;;;;;9.18;3.05;;;;;;;9.20;84.66;100158.94;5088609;28;20037;-67
2022/04/06 07:30:32;;;;;;;14.65;3.60;;;;;;;9.27;83.56;100148.38;5060672;28;20403;-57
2022/04/06 07:32:58;;;;;;;11.77;3.28;;;;;;;9.24;84.61;100145.81;5069508;28;20036;-66
2022/04/06 07:35:24;;;;;;;9.23;2.83;;;;;;;9.27;84.27;100148.38;5074643;28;20036;-64
2022/04/06 07:37:51;;;;;;;8.55;3.20;;;;;;;9.16;84.54;100137.28;5054976;28;20060;-66
2022/04/06 07:40:18;;;;;;;12.10;3.75;;;;;;;9.02;85.98;100116.63;5059757;28;20040;-66
2022/04/06 07:42:44;;;;;;;13.02;3.33;;;;;;;9.14;85.90;100131.22;5069212;28;20417;-54
2022/04/06 07:45:16;;;;;;;11.30;3.33;;;;;;;9.23;85.63;100132.78;5071313;28;20052;-63
2022/04/06 07:47:44;;;;;;;12.20;3.67;;;;;;;9.21;85.83;100122.38;5057692;28;20029;-66
2022/04/06 07:50:10;;;;;;;10.35;3.50;;;;;;;9.25;85.54;100131.00;5064838;28;20074;-64
2022/04/06 07:52:36;;;;;;;7.80;3.35;;;;;;;9.40;84.21;100117.63;5072028;28;20044;-64
2022/04/06 07:55:06;;;;;;;13.77;3.88;;;;;;;9.42;83.88;100113.25;5074800;28;20055;-66
2022/04/06 07:57:31;;;;;;;10.45;3.72;;;;;;;9.45;84.95;100107.97;5072030;28;20127;-64
2022/04/06 07:59:57;;;;;;;12.65;3.20;;;;;;;9.67;83.40;100116.22;5074231;28;20076;-64
2022/04/06 08:02:23;;;;;;;10.10;3.00;;;;;;;9.73;83.38;100105.63;5057564;28;20040;-65
2022/04/06 08:04:50;;;;;;;10.80;3.88;;;;;;;9.78;83.30;100120.31;5074459;28;20047;-65
2022/04/06 08:07:15;;;;;;;11.43;3.25;;;;;;;9.89;81.95;100114.84;5072780;28;20037;-66
2022/04/06 08:09:40;;;;;;;14.90;3.83;;;;;;;9.87;82.57;100107.97;5075088;28;20024;-66
2022/04/06 08:12:06;;;;;;;10.82;3.38;;;;;;;9.85;82.21;100109.75;5074931;28;20043;-67
2022/04/06 08:14:32;;;;;;;8.45;2.95;;;;;;;9.78;82.51;100107.25;5075038;28;20032;-66
2022/04/06 08:16:57;;;;;;;9.60;2.92;;;;;;;9.78;81.63;100109.00;5074728;28;20115;-66
2022/04/06 08:19:24;;;;;;;10.90;3.20;;;;;;;9.61;83.23;100119.81;5074243;28;20201;-67
2022/04/06 08:21:50;;;;;;;15.32;3.10;;;;;;;9.64;83.11;100113.66;5075742;28;20040;-66
2022/04/06 08:24:16;;;;;;;10.13;2.78;;;;;;;9.63;83.16;100104.97;5069321;28;20044;-67
2022/04/06 08:26:41;;;;;;;10.02;3.17;;;;;;;9.64;82.48;100105.84;5098864;28;20172;-66
2022/04/06 08:29:07;;;;;;;12.43;2.78;;;;;;;9.69;82.67;100114.44;5098809;28;20407;-66
2022/04/06 08:31:32;;;;;;;7.55;2.70;;;;;;;9.55;83.56;100108.63;5081535;28;20037;-65
2022/04/06 08:33:58;;;;;;;9.85;3.05;;;;;;;9.59;82.73;100118.13;5063957;28;20048;-63
2022/04/06 08:36:23;;;;;;;10.35;3.10;;;;;;;9.51;84.10;100110.47;5067921;28;20470;-66
2022/04/06 08:38:48;;;;;;;13.18;3.00;;;;;;;9.54;83.85;100101.69;5072249;28;20043;-66
2022/04/06 08:41:16;;;;;;;9.30;3.30;;;;;;;9.53;84.24;100111.25;5075817;28;20045;-66
2022/04/06 08:43:42;;;;;;;9.98;3.30;;;;;;;9.58;83.37;100113.78;5061208;28;20478;-66
2022/04/06 08:46:11;;;;;;;10.90;3.03;;;;;;;9.64;83.40;100111.91;5064444;28;20028;-67
2022/04/06 08:48:36;;;;;;;9.85;2.95;;;;;;;9.63;83.98;100109.34;5077634;28;20387;-63
2022/04/06 08:51:03;;;;;;;10.82;3.25;;;;;;;9.65;83.58;100104.94;5063343;28;20033;-66
2022/04/06 08:53:28;;;;;;;10.85;2.95;;;;;;;9.75;83.82;100096.00;5061828;28;20025;-67
2022/04/06 08:55:54;;;;;;;11.38;3.17;;;;;;;9.89;82.88;100090.47;5068579;28;20033;-66
2022/04/06 08:58:19;;;;;;;10.70;3.00;;;;;;;9.95;82.60;100099.03;5061765;28;20363;-65
2022/04/06 09:00:44;;;;;;;11.32;3.22;;;;;;;9.98;82.38;100093.75;5066255;28;20029;-65
2022/04/06 09:03:12;;;;;;;9.00;3.08;;;;;;;10.00;83.48;100089.34;5063083;28;20032;-65
2022/04/06 09:05:38;;;;;;;8.57;2.83;;;;;;;10.06;83.31;100091.78;5070356;28;20028;-65
2022/04/06 09:08:03;;;;;;;13.85;2.90;;;;;;;10.04;82.46;100106.66;5057213;28;20044;-65
2022/04/06 09:10:31;;;;;;;6.93;2.88;;;;;;;10.00;83.49;100099.78;5067660;28;20110;-66
2022/04/06 09:13:26;;;;;;;7.05;3.10;;;;;;;9.99;84.06;100107.66;5068129;28;20075;-65
2022/04/06 09:15:59;;;;;;;9.00;3.28;;;;;;;10.04;83.58;100103.22;5043325;28;20128;-66
2022/04/06 09:18:35;;;;;;;12.40;3.33;;;;;;;10.11;84.17;100108.25;5056903;28;20120;-65
2022/04/06 09:21:01;;;;;;;6.30;3.22;;;;;;;10.08;84.66;100100.47;5074665;28;20123;-64
2022/04/06 09:23:29;;;;;;;11.48;3.17;;;;;;;10.17;83.00;100103.78;5074769;28;20475;-66
2022/04/06 09:25:54;;;;;;;10.70;3.55;;;;;;;10.10;84.63;100098.69;5075905;28;20111;-63
2022/04/06 09:28:19;;;;;;;13.38;3.58;;;;;;;10.10;84.25;100100.44;5075482;28;20435;-65
2022/04/06 09:30:45;;;;;;;8.68;2.88;;;;;;;10.09;84.61;100102.19;5067130;28;20057;-64
2022/04/06 09:33:15;;;;;;;8.25;3.25;;;;;;;10.15;83.53;100087.25;5063342;28;20078;-65
2022/04/06 09:35:41;;;;;;;8.88;3.45;;;;;;;10.08;83.63;100091.75;5063179;28;20064;-65
2022/04/06 09:38:19;;;;;;;9.27;3.33;;;;;;;10.18;82.70;100097.66;5074899;28;20070;-67
2022/04/06 09:40:45;;;;;;;11.23;3.22;;;;;;;10.16;83.18;100102.91;5077520;28;20048;-64
2022/04/06 09:43:24;;;;;;;7.65;2.90;;;;;;;10.22;83.64;100101.91;5064638;28;20046;-65
2022/04/06 09:48:58;;;;;;;10.35;3.22;;;;;;;10.20;83.11;100103.75;5057031;28;20133;-66
2022/04/06 09:51:24;;;;;;;14.02;3.40;;;;;;;10.17;84.25;100091.56;5058901;28;20187;-65
2022/04/06 09:53:50;;;;;;;8.10;3.10;;;;;;;10.22;84.59;100096.69;5056803;28;20025;-64
2022/04/06 09:56:17;;;;;;;9.82;3.72;;;;;;;10.21;85.59;100088.00;5056424;28;20124;-66
2022/04/06 09:58:44;;;;;;;9.50;3.47;;;;;;;10.34;85.09;100089.44;5056421;28;20040;-65
2022/04/06 10:01:09;;;;;;;8.23;3.00;;;;;;;10.39;83.91;100082.31;5056275;28;20072;-67
2022/04/06 10:03:39;;;;;;;8.13;3.22;;;;;;;10.41;84.66;100090.13;5062386;28;20064;-67
2022/04/06 10:06:05;;;;;;;8.25;2.83;;;;;;;10.46;84.77;100096.09;5056507;28;20032;-65
2022/04/06 10:08:31;;;;;;;11.23;4.13;;;;;;;10.43;84.83;100085.72;5061659;28;20049;-66
2022/04/06 10:10:58;;;;;;;8.40;2.92;;;;;;;10.33;86.21;100073.78;5062687;28;20428;-65
2022/04/06 10:13:25;;;;;;;13.05;3.30;;;;;;;10.29;87.29;100079.97;5070695;28;20029;-64
2022/04/06 10:15:51;;;;;;;9.10;3.17;;;;;;;10.34;87.26;100071.13;5075607;28;20053;-64
2022/04/06 10:18:17;;;;;;;7.57;3.00;;;;;;;10.49;85.77;100058.56;5075767;28;20037;-64
2022/04/06 10:20:53;;;;;;;9.13;3.28;;;;;;;10.50;84.25;100066.38;5075902;28;20104;-65
2022/04/06 10:23:45;;;;;;;6.45;3.10;;;;;;;10.45;85.48;100063.84;5076294;28;20089;-66
2022/04/06 10:26:35;;;;;;;9.15;3.25;;;;;;;10.61;84.07;100061.69;5076148;28;20021;-65
2022/04/06 10:29:00;;;;;;;9.98;3.40;;;;;;;10.25;84.48;100066.09;5075912;28;20501;-66
2022/04/06 10:31:29;;;;;;;8.02;3.20;;;;;;;10.10;87.95;100069.91;5075947;28;20029;-66
2022/04/06 10:34:27;;;;;;;11.20;3.08;;;;;;;10.18;86.67;100067.13;5076222;28;20123;-67
2022/04/06 10:37:12;;;;;;;11.13;3.20;;;;;;;10.05;86.40;100076.13;5075206;28;20503;-65
2022/04/06 10:39:57;;;;;;;13.23;2.97;;;;;;;10.09;86.32;100062.97;5075381;28;20463;-66
2022/04/06 10:42:33;;;;;;;8.32;3.13;;;;;;;10.08;85.41;100057.78;5075815;28;20035;-65
2022/04/06 10:45:00;;;;;;;9.50;3.17;;;;;;;10.07;85.69;100062.16;5075619;28;20458;-65
2022/04/06 10:47:25;;;;;;;9.48;3.20;;;;;;;10.07;86.13;100066.50;5075642;28;20029;-65
2022/04/06 10:50:21;;;;;;;7.43;2.67;;;;;;;10.00;88.22;100049.28;5075634;28;20112;-66
2022/04/06 10:52:48;;;;;;;6.43;2.80;;;;;;;9.96;88.53;100048.47;5075770;28;20032;-66
2022/04/06 10:55:24;;;;;;;9.18;2.90;;;;;;;9.92;88.46;100049.44;5075588;28;20032;-66
2022/04/06 10:58:03;;;;;;;6.82;3.10;;;;;;;10.05;88.69;100053.47;5075384;28;20339;-65
2022/04/06 11:00:29;;;;;;;7.40;3.03;;;;;;;10.10;86.84;100056.84;5075238;28;20347;-65
2022/04/06 11:03:13;;;;;;;5.82;2.72;;;;;;;10.15;87.13;100048.03;5075049;28;20047;-65
2022/04/06 11:05:45;;;;;;;9.38;3.08;;;;;;;10.23;87.53;100033.91;5075628;28;20047;-66
2022/04/06 11:11:46;;;;;;;5.50;3.60;;;;;;;10.36;87.64;100034.47;5075668;28;20052;-66
2022/04/06 11:14:33;;;;;;;7.55;3.40;;;;;;;10.22;86.81;100037.41;5075049;28;20108;-55
2022/04/06 11:16:59;;;;;;;8.68;3.50;;;;;;;10.30;87.14;100032.00;5074975;28;20074;-60
2022/04/06 11:19:25;;;;;;;7.70;3.50;;;;;;;10.35;85.30;100022.28;5075466;28;20064;-65
2022/04/06 11:21:52;;;;;;;8.38;2.70;;;;;;;10.41;84.83;100019.50;5075308;28;20512;-67
2022/04/06 11:24:20;;;;;;;8.13;3.10;;;;;;;10.43;84.53;100020.31;5070988;28;20364;-66
2022/04/06 11:26:46;;;;;;;6.25;3.15;;;;;;;10.51;83.83;100014.91;5064359;28;20059;-67
2022/04/06 11:29:12;;;;;;;9.85;3.30;;;;;;;10.49;83.39;100014.09;5064420;28;20051;-67
2022/04/06 11:32:01;;;;;;;6.28;3.13;;;;;;;10.58;84.24;100022.53;5063667;28;20028;-66
2022/04/06 11:34:38;;;;;;;7.03;3.15;;;;;;;10.67;83.08;100014.44;5063741;28;20400;-57